Time;durP1;ratioP1;P1;durP2;ratioP2;P2;SDS_P1;SDS_P2;PMS_P1;PMS_P2;Temp;Humidity;BMP_temperature;BMP_pressure;BME280_temperature;BME280_humidity;BME280_pressure;Samples;Min_cycle;Max_cycle;Signal;HPM_P1;HPM_P2
2022/11/19 00:00:32;;;;;;;10.00;6.72;;;;;;;;;;5092668;28;20485;-78
2022/11/19 00:02:58;;;;;;;11.95;7.65;;;;;;;;;;5094084;28;20094;-78
2022/11/19 00:05:24;;;;;;;13.73;7.43;;;;;;;;;;5100445;28;20163;-79
2022/11/19 00:07:50;;;;;;;10.93;7.15;;;;;;;;;;5096185;28;20038;-80
2022/11/19 00:10:17;;;;;;;9.25;6.72;;;;;;;;;;5090914;28;20032;-79
2022/11/19 00:12:55;;;;;;;15.20;8.43;;;;;;;;;;5091272;28;20024;-77
2022/11/19 00:15:22;;;;;;;12.07;7.40;;;;;;;;;;5075005;28;20035;-80
2022/11/19 00:17:48;;;;;;;21.65;7.40;;;;;;;;;;5076444;28;20028;-79
2022/11/19 00:20:16;;;;;;;10.18;6.50;;;;;;;;;;5096898;28;20016;-79
2022/11/19 00:22:42;;;;;;;25.85;13.77;;;;;;;;;;5090661;28;20047;-79
2022/11/19 00:25:09;;;;;;;19.63;11.45;;;;;;;;;;5072418;28;20484;-78
2022/11/19 00:27:35;;;;;;;14.48;8.52;;;;;;;;;;5090317;28;20020;-78
2022/11/19 00:30:01;;;;;;;13.75;8.00;;;;;;;;;;5092212;28;20027;-78
2022/11/19 00:32:28;;;;;;;11.23;7.00;;;;;;;;;;5065570;28;20024;-78
2022/11/19 00:34:54;;;;;;;11.20;6.53;;;;;;;;;;5095037;28;20055;-77
2022/11/19 00:37:20;;;;;;;12.10;6.43;;;;;;;;;;5095281;28;20024;-79
2022/11/19 00:39:46;;;;;;;12.52;5.93;;;;;;;;;;5082489;28;20064;-78
2022/11/19 00:42:12;;;;;;;12.40;5.88;;;;;;;;;;5076147;28;20046;-79
2022/11/19 00:44:42;;;;;;;6.57;5.70;;;;;;;;;;5091393;28;20036;-79
2022/11/19 00:47:08;;;;;;;12.52;6.45;;;;;;;;;;5091653;28;20474;-78
2022/11/19 00:49:34;;;;;;;6.07;5.03;;;;;;;;;;5094879;28;20051;-78
2022/11/19 00:52:01;;;;;;;9.70;5.55;;;;;;;;;;5069448;28;20024;-78
2022/11/19 00:54:27;;;;;;;11.95;6.10;;;;;;;;;;5090692;28;20034;-77
2022/11/19 00:56:53;;;;;;;9.88;6.55;;;;;;;;;;5105599;28;20020;-78
2022/11/19 00:59:22;;;;;;;9.48;5.43;;;;;;;;;;5093661;28;20099;-78
2022/11/19 01:01:48;;;;;;;8.77;5.30;;;;;;;;;;5072429;28;20377;-77
2022/11/19 01:04:15;;;;;;;13.68;6.00;;;;;;;;;;5093103;28;20028;-79
2022/11/19 01:06:41;;;;;;;12.13;5.85;;;;;;;;;;5071882;28;20020;-77
2022/11/19 01:09:07;;;;;;;7.35;5.38;;;;;;;;;;5074539;28;20590;-78
2022/11/19 01:11:34;;;;;;;11.60;5.50;;;;;;;;;;5093183;28;20024;-80
2022/11/19 01:14:01;;;;;;;8.40;5.90;;;;;;;;;;5087802;28;20035;-77
2022/11/19 01:16:28;;;;;;;10.00;5.85;;;;;;;;;;5093106;28;20016;-78
2022/11/19 01:18:54;;;;;;;8.05;5.18;;;;;;;;;;5092625;28;20111;-78
2022/11/19 01:21:22;;;;;;;9.65;5.35;;;;;;;;;;5089511;28;20070;-77
2022/11/19 01:23:49;;;;;;;7.85;4.95;;;;;;;;;;5084185;28;20514;-78
2022/11/19 01:26:16;;;;;;;8.35;5.22;;;;;;;;;;5091615;28;20028;-77
2022/11/19 01:28:42;;;;;;;10.10;6.30;;;;;;;;;;5091257;28;20111;-78
2022/11/19 01:31:09;;;;;;;8.90;4.75;;;;;;;;;;5089493;28;20028;-77
2022/11/19 01:33:35;;;;;;;7.03;4.47;;;;;;;;;;5087253;28;20025;-78
2022/11/19 01:36:03;;;;;;;7.07;4.28;;;;;;;;;;5089896;28;20110;-77
2022/11/19 01:38:30;;;;;;;8.95;5.50;;;;;;;;;;5092192;28;20050;-77
2022/11/19 01:40:57;;;;;;;11.55;5.30;;;;;;;;;;5087380;28;20027;-78
2022/11/19 01:43:42;;;;;;;7.07;4.40;;;;;;;;;;5074560;28;20103;-78
2022/11/19 01:46:08;;;;;;;9.77;5.28;;;;;;;;;;5096116;28;20581;-78
2022/11/19 01:48:36;;;;;;;9.00;4.60;;;;;;;;;;5095209;28;20028;-77
2022/11/19 01:51:07;;;;;;;7.03;5.22;;;;;;;;;;5089283;28;20500;-78
2022/11/19 01:53:34;;;;;;;7.80;4.82;;;;;;;;;;5092139;28;20032;-77
2022/11/19 01:56:02;;;;;;;7.10;4.50;;;;;;;;;;5095086;28;20479;-78
2022/11/19 01:58:30;;;;;;;9.18;4.20;;;;;;;;;;5096501;28;20545;-78
2022/11/19 02:00:56;;;;;;;8.30;4.25;;;;;;;;;;5094375;28;20024;-78
2022/11/19 02:03:22;;;;;;;7.97;4.10;;;;;;;;;;5093947;28;20448;-78
2022/11/19 02:05:48;;;;;;;7.10;4.38;;;;;;;;;;5095803;28;20059;-78
2022/11/19 02:08:33;;;;;;;11.35;4.22;;;;;;;;;;5093631;28;20054;-79
2022/11/19 02:11:08;;;;;;;9.50;4.72;;;;;;;;;;5088812;28;20024;-79
2022/11/19 02:13:34;;;;;;;;;;;;;;;;;;5096929;28;20016;-79
2022/11/19 02:16:04;;;;;;;7.18;4.43;;;;;;;;;;5101002;28;19915;-76
2022/11/19 02:18:49;;;;;;;6.68;3.83;;;;;;;;;;5098816;28;20012;-76
2022/11/19 02:21:21;;;;;;;9.50;4.63;;;;;;;;;;5092670;28;20036;-76
2022/11/19 02:24:02;;;;;;;6.65;4.07;;;;;;;;;;5095349;28;20035;-76
2022/11/19 02:26:47;;;;;;;6.57;4.85;;;;;;;;;;5093187;28;20508;-79
2022/11/19 02:29:19;;;;;;;10.30;4.50;;;;;;;;;;5096834;28;20028;-76
2022/11/19 02:32:12;;;;;;;9.30;4.15;;;;;;;;;;5094915;28;20050;-77
2022/11/19 02:34:38;;;;;;;7.82;4.90;;;;;;;;;;5090181;28;20612;-77
2022/11/19 02:37:12;;;;;;;7.45;4.05;;;;;;;;;;5092847;28;20020;-79
2022/11/19 02:39:48;;;;;;;6.75;3.65;;;;;;;;;;5066301;28;20552;-77
2022/11/19 02:42:27;;;;;;;6.25;4.43;;;;;;;;;;5102181;28;20051;-77
2022/11/19 02:44:59;;;;;;;6.25;3.85;;;;;;;;;;5093716;28;20099;-77
2022/11/19 02:47:28;;;;;;;5.38;3.70;;;;;;;;;;5073662;28;20020;-78
2022/11/19 02:49:57;;;;;;;9.43;4.85;;;;;;;;;;5096444;28;20028;-78
2022/11/19 02:52:23;;;;;;;8.23;4.20;;;;;;;;;;5093171;28;20024;-77
2022/11/19 02:54:49;;;;;;;7.47;4.00;;;;;;;;;;5094302;28;20595;-79
2022/11/19 02:57:15;;;;;;;7.70;4.10;;;;;;;;;;5094369;28;20021;-78
2022/11/19 03:05:24;;;;;;;11.90;4.65;;;;;;;;;;5097765;28;20077;-75
2022/11/19 03:07:51;;;;;;;9.35;5.25;;;;;;;;;;5094246;28;20024;-76
2022/11/19 03:10:19;;;;;;;9.25;4.78;;;;;;;;;;5095696;28;20028;-78
2022/11/19 03:12:45;;;;;;;7.18;4.45;;;;;;;;;;5091485;28;20028;-78
2022/11/19 03:18:27;;;;;;;5.68;4.40;;;;;;;;;;5093656;28;20031;-75
2022/11/19 03:21:04;;;;;;;8.90;5.07;;;;;;;;;;5090681;28;20024;-78
2022/11/19 03:23:33;;;;;;;9.65;4.45;;;;;;;;;;5060359;28;20119;-78
2022/11/19 03:26:17;;;;;;;7.68;4.50;;;;;;;;;;5077681;28;20036;-76
2022/11/19 03:28:45;;;;;;;8.25;4.43;;;;;;;;;;5076069;28;20069;-77
2022/11/19 03:31:11;;;;;;;6.28;4.60;;;;;;;;;;5098649;28;20070;-80
2022/11/19 03:33:49;;;;;;;7.47;4.70;;;;;;;;;;5088735;28;20035;-79
2022/11/19 03:36:21;;;;;;;7.93;4.55;;;;;;;;;;5095096;28;20051;-76
2022/11/19 03:38:52;;;;;;;8.63;4.75;;;;;;;;;;5093540;28;20045;-79
2022/11/19 03:41:19;;;;;;;9.88;4.28;;;;;;;;;;5098057;28;20043;-78
2022/11/19 03:43:48;;;;;;;10.70;4.18;;;;;;;;;;5096701;28;20030;-78
2022/11/19 03:46:15;;;;;;;8.48;5.00;;;;;;;;;;5092844;28;20051;-80
2022/11/19 03:48:44;;;;;;;7.10;4.10;;;;;;;;;;5089000;28;20032;-79
2022/11/19 03:51:12;;;;;;;9.65;5.18;;;;;;;;;;5080835;28;20588;-79
2022/11/19 03:53:38;;;;;;;10.40;5.38;;;;;;;;;;5092046;28;20036;-77
2022/11/19 03:56:07;;;;;;;9.10;5.93;;;;;;;;;;5093098;28;20062;-76
2022/11/19 03:58:41;;;;;;;7.47;4.65;;;;;;;;;;5090115;28;20035;-76
2022/11/19 04:01:07;;;;;;;9.85;4.30;;;;;;;;;;5086245;28;20024;-77
2022/11/19 04:03:33;;;;;;;8.10;4.57;;;;;;;;;;5076305;28;20020;-77
2022/11/19 04:05:59;;;;;;;7.32;4.78;;;;;;;;;;5090156;28;20032;-78
2022/11/19 04:08:25;;;;;;;7.28;4.35;;;;;;;;;;5080444;28;20058;-77
2022/11/19 04:10:51;;;;;;;7.70;4.95;;;;;;;;;;5091004;28;20370;-77
2022/11/19 04:13:17;;;;;;;6.47;4.07;;;;;;;;;;5089609;28;20808;-76
2022/11/19 04:15:43;;;;;;;7.45;4.32;;;;;;;;;;5086364;28;20024;-78
2022/11/19 04:18:09;;;;;;;5.57;4.20;;;;;;;;;;5090178;28;20034;-79
2022/11/19 04:20:35;;;;;;;10.38;4.43;;;;;;;;;;5085784;28;20046;-76
2022/11/19 04:23:02;;;;;;;6.88;4.43;;;;;;;;;;5073320;28;20030;-76
2022/11/19 04:25:28;;;;;;;9.38;3.72;;;;;;;;;;5087553;28;20361;-76
2022/11/19 04:27:54;;;;;;;9.70;4.80;;;;;;;;;;5090925;28;20020;-77
2022/11/19 04:30:20;;;;;;;6.07;4.95;;;;;;;;;;5087586;28;20028;-78
2022/11/19 04:32:46;;;;;;;5.07;3.72;;;;;;;;;;5085929;28;20024;-76
2022/11/19 04:35:13;;;;;;;7.82;4.70;;;;;;;;;;5095592;28;20047;-78
2022/11/19 04:37:39;;;;;;;5.55;3.30;;;;;;;;;;5090109;28;20012;-76
2022/11/19 04:40:05;;;;;;;9.40;4.10;;;;;;;;;;5092080;28;20016;-78
2022/11/19 04:42:31;;;;;;;6.40;3.90;;;;;;;;;;5071472;28;20549;-78
2022/11/19 04:44:57;;;;;;;6.43;3.90;;;;;;;;;;5093041;28;20117;-79
2022/11/19 04:47:23;;;;;;;5.60;3.53;;;;;;;;;;5074029;28;20077;-78
2022/11/19 04:49:50;;;;;;;4.78;3.40;;;;;;;;;;5087943;28;20024;-79
2022/11/19 04:52:16;;;;;;;7.30;3.70;;;;;;;;;;5092796;28;20530;-77
2022/11/19 04:54:42;;;;;;;5.40;3.85;;;;;;;;;;5094786;28;20065;-77
2022/11/19 04:57:08;;;;;;;7.90;4.43;;;;;;;;;;5096112;28;20038;-75
2022/11/19 04:59:34;;;;;;;5.30;3.13;;;;;;;;;;5098690;28;20024;-77
2022/11/19 05:02:00;;;;;;;5.05;3.78;;;;;;;;;;5094266;28;20116;-77
2022/11/19 05:04:26;;;;;;;7.80;4.32;;;;;;;;;;5093117;28;20028;-77
2022/11/19 05:06:53;;;;;;;4.30;3.33;;;;;;;;;;5096179;28;20024;-75
2022/11/19 05:09:19;;;;;;;7.55;3.88;;;;;;;;;;5095766;28;20031;-75
2022/11/19 05:11:45;;;;;;;6.68;4.70;;;;;;;;;;5099862;28;20035;-75
2022/11/19 05:14:11;;;;;;;5.07;3.67;;;;;;;;;;5083736;28;20042;-76
2022/11/19 05:16:37;;;;;;;5.55;4.00;;;;;;;;;;5102887;28;20020;-78
2022/11/19 05:19:03;;;;;;;5.43;3.42;;;;;;;;;;5102588;28;20075;-75
2022/11/19 05:21:29;;;;;;;5.22;3.67;;;;;;;;;;5100522;28;20028;-78
2022/11/19 05:23:56;;;;;;;6.10;4.43;;;;;;;;;;5103592;28;20047;-75
2022/11/19 05:26:22;;;;;;;5.90;3.17;;;;;;;;;;5099855;28;20521;-76
2022/11/19 05:28:48;;;;;;;6.32;3.63;;;;;;;;;;5094934;28;20397;-77
2022/11/19 05:31:14;;;;;;;6.53;3.50;;;;;;;;;;5100675;28;20051;-76
2022/11/19 05:33:40;;;;;;;5.40;3.22;;;;;;;;;;5101204;28;20062;-77
2022/11/19 05:36:07;;;;;;;3.53;3.20;;;;;;;;;;5078861;28;20558;-78
2022/11/19 05:38:33;;;;;;;6.15;3.72;;;;;;;;;;5077993;28;20417;-77
2022/11/19 05:40:59;;;;;;;6.20;3.83;;;;;;;;;;5082052;28;20462;-75
2022/11/19 05:43:25;;;;;;;7.10;4.43;;;;;;;;;;5094910;28;20090;-78
2022/11/19 05:45:52;;;;;;;5.07;3.50;;;;;;;;;;5097462;28;20104;-78
2022/11/19 05:48:18;;;;;;;4.47;3.60;;;;;;;;;;5094343;28;20025;-77
2022/11/19 05:50:44;;;;;;;6.03;3.80;;;;;;;;;;5082449;28;20054;-80
2022/11/19 05:53:10;;;;;;;5.28;3.50;;;;;;;;;;5084626;28;20104;-80
2022/11/19 05:55:39;;;;;;;4.97;3.28;;;;;;;;;;5103360;28;20028;-76
2022/11/19 05:58:06;;;;;;;5.80;3.67;;;;;;;;;;5084083;28;20037;-78
2022/11/19 06:00:32;;;;;;;5.65;3.20;;;;;;;;;;5099861;28;20075;-76
2022/11/19 06:02:58;;;;;;;5.65;3.63;;;;;;;;;;5099570;28;20031;-77
2022/11/19 06:05:24;;;;;;;5.95;3.30;;;;;;;;;;5100538;28;20020;-77
2022/11/19 06:07:50;;;;;;;5.70;3.53;;;;;;;;;;5084077;28;20066;-77
2022/11/19 06:10:17;;;;;;;5.13;3.33;;;;;;;;;;5099295;28;20035;-75
2022/11/19 06:12:43;;;;;;;10.43;3.58;;;;;;;;;;5083915;28;20028;-77
2022/11/19 06:15:09;;;;;;;4.53;3.03;;;;;;;;;;5105192;28;20016;-76
2022/11/19 06:17:35;;;;;;;6.15;3.15;;;;;;;;;;5103032;28;20035;-79
2022/11/19 06:20:07;;;;;;;6.10;3.40;;;;;;;;;;5106600;28;20016;-78
2022/11/19 06:22:34;;;;;;;8.23;3.80;;;;;;;;;;5085180;28;20047;-79
2022/11/19 06:25:00;;;;;;;4.95;3.42;;;;;;;;;;5099665;28;20020;-77
2022/11/19 06:27:26;;;;;;;7.00;3.55;;;;;;;;;;5099526;28;20101;-79
2022/11/19 06:29:52;;;;;;;7.00;3.38;;;;;;;;;;5095812;28;20478;-79
2022/11/19 06:32:18;;;;;;;5.80;3.00;;;;;;;;;;5097920;28;20036;-77
2022/11/19 06:34:44;;;;;;;4.72;2.90;;;;;;;;;;5097798;28;20394;-78
2022/11/19 06:37:10;;;;;;;6.72;3.60;;;;;;;;;;5098861;28;20027;-77
2022/11/19 06:39:36;;;;;;;6.90;3.33;;;;;;;;;;5099109;28;20004;-80
2022/11/19 06:44:47;;;;;;;5.13;2.90;;;;;;;;;;5098377;28;20509;-77
2022/11/19 06:47:13;;;;;;;5.15;3.70;;;;;;;;;;5098132;28;20111;-76
2022/11/19 06:49:40;;;;;;;5.93;3.30;;;;;;;;;;5076299;28;20128;-79
2022/11/19 06:52:06;;;;;;;5.63;3.05;;;;;;;;;;5102411;28;20031;-79
2022/11/19 06:54:32;;;;;;;4.47;2.92;;;;;;;;;;5099449;28;20023;-77
2022/11/19 06:56:58;;;;;;;4.32;3.15;;;;;;;;;;5103243;28;20012;-76
2022/11/19 06:59:28;;;;;;;9.70;3.50;;;;;;;;;;5084803;28;20016;-78
2022/11/19 07:01:54;;;;;;;6.95;4.13;;;;;;;;;;5086397;28;20035;-76
2022/11/19 07:04:20;;;;;;;5.22;3.55;;;;;;;;;;5100208;28;20058;-79
2022/11/19 07:06:46;;;;;;;5.22;3.55;;;;;;;;;;5075330;28;20058;-78
2022/11/19 07:09:12;;;;;;;5.85;4.22;;;;;;;;;;5100400;28;20028;-79
2022/11/19 07:11:38;;;;;;;5.10;3.10;;;;;;;;;;5099099;28;20114;-77
2022/11/19 07:14:04;;;;;;;6.97;3.53;;;;;;;;;;5092731;28;20043;-79
2022/11/19 07:16:33;;;;;;;6.13;3.45;;;;;;;;;;5085772;28;20028;-75
2022/11/19 07:18:59;;;;;;;4.88;3.58;;;;;;;;;;5098006;28;20035;-78
2022/11/19 07:21:26;;;;;;;4.35;3.33;;;;;;;;;;5100788;28;20040;-77
2022/11/19 07:23:52;;;;;;;5.60;3.13;;;;;;;;;;5095950;28;20031;-77
2022/11/19 07:26:18;;;;;;;4.05;3.40;;;;;;;;;;5095560;28;20024;-77
2022/11/19 07:28:44;;;;;;;5.93;3.40;;;;;;;;;;5097658;28;20124;-78
2022/11/19 07:31:11;;;;;;;5.47;3.35;;;;;;;;;;5076588;28;20080;-76
2022/11/19 07:33:38;;;;;;;6.10;3.50;;;;;;;;;;5078540;28;20397;-78
2022/11/19 07:36:05;;;;;;;6.43;3.53;;;;;;;;;;5095813;28;20041;-77
2022/11/19 07:38:31;;;;;;;6.97;3.80;;;;;;;;;;5096188;28;20477;-78
2022/11/19 07:40:57;;;;;;;7.22;4.05;;;;;;;;;;5083587;28;20028;-79
2022/11/19 07:43:23;;;;;;;6.32;3.40;;;;;;;;;;5083930;28;20028;-79
2022/11/19 07:45:50;;;;;;;7.65;3.92;;;;;;;;;;5103309;28;20028;-77
2022/11/19 07:48:16;;;;;;;5.85;4.30;;;;;;;;;;5103837;28;20052;-76
2022/11/19 07:50:42;;;;;;;7.72;3.78;;;;;;;;;;5085423;28;20032;-78
2022/11/19 07:53:09;;;;;;;4.47;3.42;;;;;;;;;;5100655;28;20032;-77
2022/11/19 07:55:36;;;;;;;6.10;3.90;;;;;;;;;;5079549;28;20024;-75
2022/11/19 07:58:02;;;;;;;8.82;3.67;;;;;;;;;;5080221;28;20024;-80
2022/11/19 08:00:28;;;;;;;5.47;3.50;;;;;;;;;;5099075;28;20000;-77
2022/11/19 08:02:54;;;;;;;5.45;3.60;;;;;;;;;;5081183;28;20024;-77
2022/11/19 08:05:21;;;;;;;8.38;4.22;;;;;;;;;;5087007;28;20111;-77
2022/11/19 08:07:47;;;;;;;6.03;4.00;;;;;;;;;;5098851;28;20028;-77
2022/11/19 08:10:13;;;;;;;7.90;4.93;;;;;;;;;;5097734;28;20028;-77
2022/11/19 08:12:39;;;;;;;8.50;4.05;;;;;;;;;;5084283;28;20024;-76
2022/11/19 08:15:06;;;;;;;6.68;4.10;;;;;;;;;;5098130;28;20036;-78
2022/11/19 08:20:17;;;;;;;7.75;4.07;;;;;;;;;;5097858;28;20036;-77
2022/11/19 08:22:43;;;;;;;8.00;4.95;;;;;;;;;;5092139;28;20024;-77
2022/11/19 08:25:09;;;;;;;10.45;4.65;;;;;;;;;;5096208;28;20032;-77
2022/11/19 08:27:35;;;;;;;9.43;4.78;;;;;;;;;;5097224;28;20028;-77
2022/11/19 08:30:01;;;;;;;8.02;4.00;;;;;;;;;;5096726;28;20032;-78
2022/11/19 08:32:27;;;;;;;9.02;4.10;;;;;;;;;;5096310;28;20028;-78
2022/11/19 08:34:53;;;;;;;8.65;4.43;;;;;;;;;;5098271;28;20044;-78
2022/11/19 08:37:19;;;;;;;7.47;4.10;;;;;;;;;;5099858;28;20057;-77
2022/11/19 08:39:45;;;;;;;8.90;4.60;;;;;;;;;;5102143;28;20024;-78
2022/11/19 08:44:57;;;;;;;9.67;4.97;;;;;;;;;;5105849;28;20043;-76
2022/11/19 08:47:26;;;;;;;11.48;6.00;;;;;;;;;;5101563;28;20036;-77
2022/11/19 08:49:53;;;;;;;11.07;6.63;;;;;;;;;;5105525;28;20051;-76
2022/11/19 08:52:19;;;;;;;12.10;6.82;;;;;;;;;;5105516;28;20028;-75
2022/11/19 08:54:45;;;;;;;10.65;6.93;;;;;;;;;;5100563;28;20102;-76
2022/11/19 08:57:11;;;;;;;12.30;7.70;;;;;;;;;;5091721;28;20509;-78
2022/11/19 08:59:37;;;;;;;17.63;10.70;;;;;;;;;;5095520;28;20488;-76
2022/11/19 09:02:03;;;;;;;15.80;8.60;;;;;;;;;;5100669;28;20020;-77
2022/11/19 09:04:29;;;;;;;14.52;9.68;;;;;;;;;;5098625;28;20083;-76
2022/11/19 09:06:55;;;;;;;20.58;10.32;;;;;;;;;;5099591;28;20028;-77
2022/11/19 09:09:21;;;;;;;115.88;42.03;;;;;;;;;;5098216;28;20020;-76
2022/11/19 09:11:47;;;;;;;30.70;14.10;;;;;;;;;;5100498;28;20036;-76
2022/11/19 09:14:13;;;;;;;45.13;16.23;;;;;;;;;;5104749;28;20024;-79
2022/11/19 09:16:39;;;;;;;17.98;9.82;;;;;;;;;;5097523;28;20024;-78
2022/11/19 09:19:06;;;;;;;12.50;7.63;;;;;;;;;;5097336;28;20022;-77
2022/11/19 09:21:32;;;;;;;10.90;6.15;;;;;;;;;;5099655;28;20042;-77
2022/11/19 09:23:58;;;;;;;12.63;7.03;;;;;;;;;;5082254;28;20047;-79
2022/11/19 09:26:27;;;;;;;14.38;8.15;;;;;;;;;;5101700;28;20101;-75
2022/11/19 09:28:53;;;;;;;11.13;7.75;;;;;;;;;;5097989;28;20023;-77
2022/11/19 09:31:19;;;;;;;11.00;7.30;;;;;;;;;;5099610;28;20035;-77
2022/11/19 09:33:47;;;;;;;13.13;7.78;;;;;;;;;;5094287;28;20028;-75
2022/11/19 09:36:14;;;;;;;12.70;7.55;;;;;;;;;;5096876;28;20040;-77
2022/11/19 09:38:40;;;;;;;16.88;9.13;;;;;;;;;;5094535;28;20020;-78
2022/11/19 09:41:15;;;;;;;14.18;8.50;;;;;;;;;;5090677;28;20032;-79
2022/11/19 09:44:00;;;;;;;10.15;7.40;;;;;;;;;;5088837;28;20116;-78
2022/11/19 09:46:35;;;;;;;28.92;16.38;;;;;;;;;;5092294;28;20087;-77
2022/11/19 09:49:03;;;;;;;11.82;7.82;;;;;;;;;;5085196;28;20114;-78
2022/11/19 09:51:31;;;;;;;12.38;6.57;;;;;;;;;;5088967;28;20040;-79
2022/11/19 09:54:11;;;;;;;8.18;6.32;;;;;;;;;;5090272;28;20388;-79
2022/11/19 09:56:47;;;;;;;11.38;6.70;;;;;;;;;;5075174;28;20432;-78
2022/11/19 09:59:13;;;;;;;;;;;;;;;;;;5092213;28;20060;-78
2022/11/19 10:01:38;;;;;;;;;;;;;;;;;;5096459;28;20318;-77
2022/11/19 10:04:04;;;;;;;8.07;4.75;;;;;;;;;;5079122;28;19911;-78
2022/11/19 10:06:48;;;;;;;3.78;3.15;;;;;;;;;;5093412;28;20106;-77
2022/11/19 10:09:14;;;;;;;8.00;3.95;;;;;;;;;;5088326;28;20028;-78
2022/11/19 10:11:49;;;;;;;8.23;4.22;;;;;;;;;;5088010;28;20103;-77
2022/11/19 10:14:32;;;;;;;7.50;4.35;;;;;;;;;;5066659;28;20494;-75
2022/11/19 10:16:58;;;;;;;6.68;3.80;;;;;;;;;;5103133;28;20050;-76
2022/11/19 10:19:44;;;;;;;14.80;4.53;;;;;;;;;;5107992;28;20094;-77
2022/11/19 10:22:13;;;;;;;11.15;4.43;;;;;;;;;;5104894;28;20028;-77
2022/11/19 10:24:44;;;;;;;36.63;17.38;;;;;;;;;;5086051;28;20016;-76
2022/11/19 10:27:18;;;;;;;20.00;8.18;;;;;;;;;;5088090;28;20080;-77
2022/11/19 10:29:46;;;;;;;13.82;6.47;;;;;;;;;;5100038;28;20016;-77
2022/11/19 10:32:22;;;;;;;29.05;14.40;;;;;;;;;;5108600;28;20035;-76
2022/11/19 10:34:51;;;;;;;37.17;20.05;;;;;;;;;;5107245;28;20040;-76
2022/11/19 10:37:19;;;;;;;18.70;10.43;;;;;;;;;;5109060;28;20020;-76
2022/11/19 10:39:55;;;;;;;9.45;5.60;;;;;;;;;;5107951;28;20021;-76
2022/11/19 10:42:46;;;;;;;5.78;3.80;;;;;;;;;;5106016;28;20070;-76
2022/11/19 10:45:20;;;;;;;7.40;2.75;;;;;;;;;;5090199;28;20036;-76
2022/11/19 10:48:05;;;;;;;25.98;14.50;;;;;;;;;;5094632;28;20032;-77
2022/11/19 10:50:31;;;;;;;41.00;21.00;;;;;;;;;;5099003;28;20031;-79
2022/11/19 10:53:00;;;;;;;24.58;10.85;;;;;;;;;;5099792;28;20028;-78
2022/11/19 10:55:35;;;;;;;20.20;8.60;;;;;;;;;;5095443;28;20040;-78
2022/11/19 10:58:11;;;;;;;47.72;19.88;;;;;;;;;;5081603;28;20039;-80
2022/11/19 11:00:38;;;;;;;52.53;19.83;;;;;;;;;;5094096;28;20028;-78
2022/11/19 11:03:05;;;;;;;74.43;27.13;;;;;;;;;;5094323;28;20016;-77
2022/11/19 11:05:31;;;;;;;57.78;23.77;;;;;;;;;;5074957;28;20390;-79
2022/11/19 11:08:02;;;;;;;23.48;10.63;;;;;;;;;;5095812;28;20032;-79
2022/11/19 11:10:42;;;;;;;5.97;4.18;;;;;;;;;;5093561;28;20430;-80
2022/11/19 11:16:09;;;;;;;4.93;3.15;;;;;;;;;;5092055;28;20604;-78
2022/11/19 11:18:39;;;;;;;7.95;3.92;;;;;;;;;;5096047;28;20024;-78
2022/11/19 11:21:06;;;;;;;5.35;2.83;;;;;;;;;;5061023;28;20036;-80
2022/11/19 11:23:32;;;;;;;4.18;2.67;;;;;;;;;;5080030;28;20435;-79
2022/11/19 11:26:01;;;;;;;11.25;3.60;;;;;;;;;;5080065;28;20020;-80
2022/11/19 11:28:28;;;;;;;5.43;3.15;;;;;;;;;;5097383;28;20373;-81
2022/11/19 11:31:01;;;;;;;8.88;3.55;;;;;;;;;;5096269;28;20028;-78
2022/11/19 11:33:36;;;;;;;4.13;2.45;;;;;;;;;;5097028;28;20024;-79
2022/11/19 11:36:14;;;;;;;5.22;2.08;;;;;;;;;;5091079;28;20040;-78
2022/11/19 11:38:45;;;;;;;3.22;1.77;;;;;;;;;;5073397;28;20024;-79
2022/11/19 11:41:14;;;;;;;6.53;2.70;;;;;;;;;;5090101;28;20047;-80
2022/11/19 11:44:00;;;;;;;4.40;2.58;;;;;;;;;;5104337;28;20031;-78
2022/11/19 11:46:33;;;;;;;4.55;2.22;;;;;;;;;;5080783;28;20036;-78
2022/11/19 11:48:59;;;;;;;2.53;2.10;;;;;;;;;;5103022;28;20021;-79
2022/11/19 11:51:27;;;;;;;5.60;2.50;;;;;;;;;;5078575;28;20024;-77
2022/11/19 11:54:04;;;;;;;6.20;1.90;;;;;;;;;;5103291;28;20020;-76
2022/11/19 11:56:30;;;;;;;4.90;1.90;;;;;;;;;;5100456;28;20031;-76
2022/11/19 11:59:13;;;;;;;4.53;2.00;;;;;;;;;;5100618;28;20028;-79
2022/11/19 12:01:40;;;;;;;6.40;1.88;;;;;;;;;;5104089;28;20569;-79
2022/11/19 12:04:10;;;;;;;2.20;1.83;;;;;;;;;;5079821;28;20292;-78
2022/11/19 12:06:45;;;;;;;4.90;2.20;;;;;;;;;;5099157;28;20036;-79
2022/11/19 12:09:18;;;;;;;4.05;2.00;;;;;;;;;;5090180;28;20020;-77
2022/11/19 12:11:53;;;;;;;5.07;1.95;;;;;;;;;;5097478;28;20028;-78
2022/11/19 12:14:38;;;;;;;4.70;2.38;;;;;;;;;;5105257;28;20509;-77
2022/11/19 12:17:13;;;;;;;6.97;2.25;;;;;;;;;;5102336;28;20036;-79
2022/11/19 12:19:42;;;;;;;4.90;2.92;;;;;;;;;;5099094;28;20080;-79
2022/11/19 12:22:08;;;;;;;6.13;2.33;;;;;;;;;;5099551;28;20076;-78
2022/11/19 12:24:40;;;;;;;6.30;3.55;;;;;;;;;;5081999;28;20035;-77
2022/11/19 12:27:13;;;;;;;8.60;4.57;;;;;;;;;;5097989;28;20046;-78
2022/11/19 12:29:45;;;;;;;7.85;3.20;;;;;;;;;;5101700;28;20039;-78
2022/11/19 12:32:35;;;;;;;5.45;3.05;;;;;;;;;;5070345;28;20029;-79
2022/11/19 12:35:20;;;;;;;3.92;2.30;;;;;;;;;;5092751;28;20051;-79
2022/11/19 12:37:56;;;;;;;5.37;2.47;;;;;;;;;;5098018;28;20028;-78
2022/11/19 12:40:31;;;;;;;6.45;2.70;;;;;;;;;;5094715;28;20277;-78
2022/11/19 12:43:10;;;;;;;8.48;3.10;;;;;;;;;;5096973;28;20020;-79
2022/11/19 12:45:42;;;;;;;4.63;2.67;;;;;;;;;;5094113;28;20012;-79
2022/11/19 12:48:42;;;;;;;5.97;2.20;;;;;;;;;;5091067;28;20031;-80
2022/11/19 12:51:22;;;;;;;6.60;2.92;;;;;;;;;;5026883;28;20143;-78
2022/11/19 12:53:59;;;;;;;4.82;2.28;;;;;;;;;;5090839;28;20043;-79
2022/11/19 12:56:50;;;;;;;4.28;2.30;;;;;;;;;;5089479;28;20024;-76
2022/11/19 12:59:22;;;;;;;9.15;2.95;;;;;;;;;;5090548;28;20047;-75
2022/11/19 13:01:50;;;;;;;7.43;2.47;;;;;;;;;;5089827;28;20028;-76
2022/11/19 13:04:16;;;;;;;3.78;1.90;;;;;;;;;;5089823;28;20027;-75
2022/11/19 13:06:54;;;;;;;5.03;2.60;;;;;;;;;;5090692;28;20107;-79
2022/11/19 13:09:39;;;;;;;4.28;3.22;;;;;;;;;;5091415;28;20028;-79
2022/11/19 13:12:07;;;;;;;4.63;2.47;;;;;;;;;;5086825;28;20033;-78
2022/11/19 13:14:37;;;;;;;8.65;3.88;;;;;;;;;;5086167;28;20030;-78
2022/11/19 13:17:05;;;;;;;5.40;2.60;;;;;;;;;;5089011;28;20919;-78
2022/11/19 13:19:33;;;;;;;6.85;2.40;;;;;;;;;;5084053;28;20025;-78
2022/11/19 13:22:15;;;;;;;3.33;2.10;;;;;;;;;;5086176;28;20024;-78
2022/11/19 13:24:43;;;;;;;5.22;2.05;;;;;;;;;;5084598;28;20055;-77
2022/11/19 13:27:12;;;;;;;4.97;2.40;;;;;;;;;;5079874;28;20501;-76
2022/11/19 13:29:50;;;;;;;2.53;1.90;;;;;;;;;;5083177;28;20082;-75
2022/11/19 13:32:20;;;;;;;8.20;2.22;;;;;;;;;;5082737;28;20413;-77
2022/11/19 13:35:00;;;;;;;5.20;2.45;;;;;;;;;;5087622;28;20060;-76
2022/11/19 13:37:45;;;;;;;5.70;3.70;;;;;;;;;;5089863;28;20027;-76
2022/11/19 13:40:21;;;;;;;3.42;2.60;;;;;;;;;;5087282;28;20020;-76
2022/11/19 13:45:33;;;;;;;5.88;2.35;;;;;;;;;;5085163;28;20039;-77
2022/11/19 13:48:01;;;;;;;3.10;2.33;;;;;;;;;;5087745;28;20065;-77
2022/11/19 13:50:47;;;;;;;6.50;2.00;;;;;;;;;;5084666;28;20028;-76
2022/11/19 13:53:17;;;;;;;4.85;2.83;;;;;;;;;;5088592;28;20047;-76
2022/11/19 13:55:44;;;;;;;5.00;2.75;;;;;;;;;;5087331;28;20028;-77
2022/11/19 13:58:10;;;;;;;3.42;2.00;;;;;;;;;;5069626;28;20440;-76
2022/11/19 14:00:37;;;;;;;5.03;2.35;;;;;;;;;;5066563;28;20024;-76
2022/11/19 14:03:15;;;;;;;3.17;2.10;;;;;;;;;;5067922;28;20128;-77
2022/11/19 14:05:45;;;;;;;5.95;1.90;;;;;;;;;;5067369;28;20370;-77
2022/11/19 14:08:26;;;;;;;3.22;2.08;;;;;;;;;;5085342;28;20075;-76
2022/11/19 14:10:55;;;;;;;2.78;2.08;;;;;;;;;;5085233;28;20040;-76
2022/11/19 14:13:21;;;;;;;4.15;2.70;;;;;;;;;;5087558;28;20489;-77
2022/11/19 14:27:16;;;;;;;4.75;2.40;;;;;;;;;;5086094;28;20092;-78
2022/11/19 14:29:45;;;;;;;6.03;3.72;;;;;;;;;;5066395;28;20031;-77
2022/11/19 14:32:11;;;;;;;2.10;1.90;;;;;;;;;;5084247;28;20176;-78
2022/11/19 14:34:40;;;;;;;3.70;2.38;;;;;;;;;;5085071;28;20044;-77
2022/11/19 14:37:18;;;;;;;3.40;2.50;;;;;;;;;;5083599;28;20069;-78
2022/11/19 14:39:45;;;;;;;7.10;2.92;;;;;;;;;;5090022;28;20019;-78
2022/11/19 14:42:16;;;;;;;5.10;2.70;;;;;;;;;;5089539;28;20035;-77
2022/11/19 14:44:43;;;;;;;2.92;2.42;;;;;;;;;;5082613;28;20024;-75
2022/11/19 14:47:21;;;;;;;7.47;3.20;;;;;;;;;;5062541;28;20031;-77
2022/11/19 14:49:49;;;;;;;4.50;2.78;;;;;;;;;;5064612;28;20144;-78
2022/11/19 14:52:25;;;;;;;4.05;2.40;;;;;;;;;;5065340;28;20028;-78
2022/11/19 14:54:55;;;;;;;2.40;2.10;;;;;;;;;;5083616;28;20036;-78
2022/11/19 14:57:27;;;;;;;4.28;2.03;;;;;;;;;;5066260;28;20012;-78
2022/11/19 14:59:58;;;;;;;4.57;1.98;;;;;;;;;;5086448;28;20378;-77
2022/11/19 15:02:34;;;;;;;4.15;2.50;;;;;;;;;;5065966;28;20031;-78
2022/11/19 15:05:01;;;;;;;;;;;;;;;;;;5068179;28;20059;-77
2022/11/19 15:08:01;;;;;;;4.00;2.47;;;;;;;;;;5066189;28;19931;-77
2022/11/19 15:10:28;;;;;;;2.92;2.47;;;;;;;;;;5014316;28;20102;-77
2022/11/19 15:13:17;;;;;;;5.07;2.92;;;;;;;;;;5088239;28;20036;-76
2022/11/19 15:15:44;;;;;;;3.92;2.80;;;;;;;;;;5080333;28;20075;-76
2022/11/19 15:18:29;;;;;;;3.63;2.75;;;;;;;;;;5087227;28;20028;-77
2022/11/19 15:21:13;;;;;;;3.55;2.72;;;;;;;;;;5086950;28;20381;-78
2022/11/19 15:23:45;;;;;;;3.95;3.08;;;;;;;;;;5085728;28;20032;-77
2022/11/19 15:26:28;;;;;;;4.95;2.90;;;;;;;;;;5084489;28;20473;-76
2022/11/19 15:29:04;;;;;;;8.35;5.60;;;;;;;;;;5084860;28;20436;-78